createdAt,value
2022-08-02T14:21:19.033Z,2.85
2022-08-02T14:23:50.676Z,1.88
2022-08-02T14:26:27.355Z,2.53
2022-08-02T14:28:56.667Z,3.67
2022-08-02T14:31:25.267Z,3.08
2022-08-02T14:33:53.811Z,1.63
2022-08-02T14:36:27.885Z,3.88
2022-08-02T14:38:56.826Z,2.50
2022-08-02T14:41:25.703Z,1.88
2022-08-02T14:44:07.806Z,1.60
2022-08-02T14:46:37.245Z,3.63
2022-08-02T14:49:07.749Z,2.20
2022-08-02T14:51:38.031Z,2.13
2022-08-02T14:54:08.549Z,1.30
2022-08-02T14:56:40.554Z,1.63
2022-08-02T14:59:09.061Z,1.50
2022-08-02T15:01:37.797Z,1.33
2022-08-02T15:04:06.479Z,2.05
2022-08-02T15:06:35.031Z,2.53
2022-08-02T15:09:05.480Z,3.92
2022-08-02T15:11:47.833Z,1.85
2022-08-02T15:14:19.120Z,7.82
2022-08-02T15:16:58.832Z,3.38
2022-08-02T15:19:55.941Z,4.53
2022-08-02T15:22:19.201Z,3.45
2022-08-02T15:24:50.014Z,3.03
2022-08-02T15:27:18.779Z,4.60
2022-08-02T15:29:48.066Z,3.95
2022-08-02T15:32:18.781Z,1.58
2022-08-02T15:34:47.577Z,1.55
2022-08-02T15:37:16.120Z,2.28
2022-08-02T15:39:44.708Z,1.60
2022-08-02T15:42:15.013Z,1.60
2022-08-02T15:44:45.071Z,1.70
2022-08-02T15:47:13.654Z,1.88
2022-08-02T15:49:42.234Z,1.88
2022-08-02T15:52:11.334Z,2.13
2022-08-02T15:54:40.163Z,2.30
2022-08-02T15:57:08.914Z,1.90
2022-08-02T15:59:38.811Z,1.70
2022-08-02T16:02:07.732Z,1.73
2022-08-02T16:04:36.851Z,1.77
2022-08-02T16:07:05.650Z,1.70
2022-08-02T16:09:34.237Z,2.10
2022-08-02T16:12:02.781Z,2.58
2022-08-02T16:14:31.402Z,2.10
2022-08-02T16:17:01.325Z,2.53
2022-08-02T16:19:46.008Z,1.80
2022-08-02T16:22:17.867Z,1.85
2022-08-02T16:24:46.529Z,1.67
2022-08-02T16:27:15.235Z,1.88
2022-08-02T16:29:43.841Z,2.15
2022-08-02T16:32:15.910Z,2.28
2022-08-02T16:35:07.063Z,3.92
2022-08-02T16:37:50.313Z,2.17
2022-08-02T16:40:21.624Z,2.13
2022-08-02T16:42:51.097Z,2.20
2022-08-02T16:45:21.040Z,2.33
2022-08-02T16:47:55.891Z,2.03
2022-08-02T16:50:27.277Z,3.38
2022-08-02T16:52:57.115Z,2.90
2022-08-02T16:55:30.540Z,2.13
2022-08-02T16:58:00.512Z,2.10
2022-08-02T17:00:29.844Z,2.30
2022-08-02T17:03:01.077Z,2.22
2022-08-02T17:05:56.192Z,2.22
2022-08-02T17:08:32.202Z,2.35
2022-08-02T17:11:03.381Z,3.58
2022-08-02T17:13:34.338Z,2.33
2022-08-02T17:16:25.763Z,2.15
2022-08-02T17:18:56.365Z,2.90
2022-08-02T17:21:25.160Z,2.00
2022-08-02T17:24:08.344Z,2.50
2022-08-02T17:26:38.150Z,2.70
2022-08-02T17:29:16.477Z,2.58
2022-08-02T17:32:12.634Z,2.47
2022-08-02T17:34:37.877Z,3.33
2022-08-02T17:37:06.747Z,2.45
2022-08-02T17:39:44.439Z,2.50
2022-08-02T17:42:23.270Z,2.50
2022-08-02T17:44:52.631Z,2.50
2022-08-02T17:47:22.144Z,3.55
2022-08-02T17:49:52.629Z,2.38
2022-08-02T17:52:51.813Z,2.50
2022-08-02T17:55:12.889Z,2.20
2022-08-02T17:57:55.538Z,2.28
2022-08-02T18:00:26.622Z,2.40
2022-08-02T18:02:55.851Z,4.80
2022-08-02T18:05:40.148Z,3.83
2022-08-02T18:08:17.305Z,2.50
2022-08-02T18:10:49.723Z,2.40
2022-08-02T18:13:18.302Z,2.40
2022-08-02T18:15:47.083Z,3.53
2022-08-02T18:18:19.170Z,2.60
2022-08-02T18:21:21.968Z,2.72
2022-08-02T18:23:58.471Z,4.07
2022-08-02T18:26:28.612Z,3.05
2022-08-02T18:28:57.609Z,3.22
2022-08-02T18:31:27.092Z,4.60
2022-08-02T18:34:01.979Z,3.63
2022-08-02T18:36:33.057Z,2.70
2022-08-02T18:39:08.268Z,3.17
2022-08-02T18:41:38.083Z,2.53
2022-08-02T18:44:07.231Z,2.88
2022-08-02T18:46:36.029Z,13.93
2022-08-02T18:49:13.453Z,9.23
2022-08-02T18:51:46.109Z,4.88
2022-08-02T18:54:16.533Z,5.72
2022-08-02T18:56:55.940Z,5.07
2022-08-02T18:59:26.084Z,5.05
2022-08-02T19:01:54.664Z,6.03
2022-08-02T19:04:26.897Z,4.63
2022-08-02T19:07:07.431Z,3.17
2022-08-02T19:09:39.923Z,3.78
2022-08-02T19:12:11.269Z,2.58
2022-08-02T19:14:40.418Z,4.50
2022-08-02T19:17:15.998Z,4.18
2022-08-02T19:19:58.476Z,4.13
2022-08-02T19:22:29.933Z,4.90
2022-08-02T19:25:01.124Z,5.65
2022-08-02T19:27:32.492Z,4.45
2022-08-02T19:30:02.816Z,4.53
2022-08-02T19:32:40.573Z,5.85
2022-08-02T19:35:30.519Z,3.72
2022-08-02T19:38:09.257Z,6.00
2022-08-02T19:40:38.889Z,3.90
2022-08-02T19:44:26.003Z,3.58
2022-08-02T19:45:57.747Z,4.95
2022-08-02T19:48:28.317Z,3.47
2022-08-02T19:51:00.557Z,3.75
2022-08-02T19:53:48.004Z,3.17
2022-08-02T19:56:20.360Z,3.88
2022-08-02T19:58:51.391Z,5.32
2022-08-02T20:04:12.879Z,3.13
2022-08-02T20:06:45.495Z,5.28
2022-08-02T20:09:16.448Z,3.20
2022-08-02T20:11:45.699Z,5.28
2022-08-02T20:14:14.532Z,2.65
2022-08-02T20:16:43.115Z,5.38
2022-08-02T20:19:14.823Z,3.03
2022-08-02T20:21:52.961Z,3.30
2022-08-02T20:24:27.402Z,3.15
2022-08-02T20:26:59.321Z,2.50
2022-08-02T20:29:44.050Z,3.03
2022-08-02T20:32:22.670Z,2.60
2022-08-02T20:34:52.660Z,2.70
2022-08-02T20:38:00.089Z,2.50
2022-08-02T20:40:16.576Z,4.10
2022-08-02T20:42:47.575Z,5.35
2022-08-02T20:45:16.829Z,14.98
2022-08-02T20:47:45.857Z,29.42
2022-08-02T20:50:37.602Z,50.85
2022-08-02T20:53:06.602Z,45.65
2022-08-02T20:55:41.766Z,42.70
2022-08-02T20:58:11.860Z,35.95
2022-08-02T21:00:41.241Z,27.17
2022-08-02T21:03:11.263Z,21.55
2022-08-02T21:05:55.835Z,17.83
2022-08-02T21:08:24.945Z,15.57
2022-08-02T21:10:55.423Z,13.48
2022-08-02T21:13:26.286Z,11.95
2022-08-02T21:15:58.994Z,10.00
2022-08-02T21:18:40.645Z,8.65
2022-08-02T21:21:10.700Z,8.40
2022-08-02T21:23:44.965Z,6.22
2022-08-02T21:26:19.767Z,5.88
2022-08-02T21:28:54.405Z,6.07
2022-08-02T21:31:23.526Z,5.78
2022-08-02T21:34:00.102Z,4.38
2022-08-02T21:36:31.852Z,4.40
2022-08-02T21:39:17.647Z,4.82
2022-08-02T21:41:47.589Z,3.55
2022-08-02T21:44:17.098Z,4.60
2022-08-02T21:46:46.601Z,6.40
2022-08-02T21:49:18.471Z,5.35
2022-08-02T21:51:49.387Z,3.42
2022-08-02T21:54:21.156Z,3.28
2022-08-02T21:56:52.766Z,3.45
2022-08-02T21:59:26.060Z,3.72
2022-08-02T22:01:57.086Z,4.65
2022-08-02T22:04:26.475Z,6.55
2022-08-02T22:06:55.502Z,3.63
2022-08-02T22:09:43.543Z,3.80
2022-08-02T22:12:17.532Z,3.50
2022-08-02T22:14:55.053Z,3.60
2022-08-02T22:17:51.063Z,5.32
2022-08-02T22:20:14.535Z,3.83
2022-08-02T22:22:44.200Z,4.35
2022-08-02T22:25:26.671Z,3.83
2022-08-02T22:28:38.434Z,5.05
2022-08-02T22:30:53.084Z,3.53
2022-08-02T22:33:42.234Z,4.00
2022-08-02T22:36:16.206Z,3.40
2022-08-02T22:38:44.996Z,2.80
2022-08-02T22:41:13.908Z,3.15
2022-08-02T22:43:44.306Z,2.95
2022-08-02T22:46:15.459Z,3.55
2022-08-02T22:48:45.360Z,3.65
2022-08-02T22:51:14.584Z,4.38
2022-08-02T22:53:44.027Z,4.40
2022-08-02T22:56:15.505Z,4.32
2022-08-02T22:59:05.291Z,3.30
2022-08-02T23:01:34.044Z,3.13
2022-08-02T23:04:02.604Z,2.75
2022-08-02T23:06:31.155Z,2.92
2022-08-02T23:08:59.718Z,3.08
2022-08-02T23:11:28.312Z,3.20
2022-08-02T23:13:58.268Z,2.58
2022-08-02T23:16:44.471Z,2.67
2022-08-02T23:19:30.510Z,2.08
2022-08-02T23:22:02.827Z,2.72
2022-08-02T23:24:33.395Z,3.45
2022-08-02T23:27:02.371Z,2.78
2022-08-02T23:29:32.255Z,3.33
2022-08-02T23:32:01.041Z,3.92
2022-08-02T23:34:29.634Z,3.28
2022-08-02T23:36:58.218Z,3.53
2022-08-02T23:39:26.828Z,3.80
2022-08-02T23:41:55.993Z,3.08
2022-08-02T23:44:24.907Z,2.63
2022-08-02T23:46:55.166Z,5.63
2022-08-02T23:49:24.260Z,2.97
2022-08-02T23:51:52.906Z,2.65
2022-08-02T23:54:21.847Z,3.30
2022-08-02T23:56:50.430Z,3.42
2022-08-02T23:59:19.023Z,2.95
